Time;durP1;ratioP1;P1;durP2;ratioP2;P2;SDS_P1;SDS_P2;PMS_P1;PMS_P2;Temp;Humidity;BMP_temperature;BMP_pressure;BME280_temperature;BME280_humidity;BME280_pressure;Samples;Min_cycle;Max_cycle;Signal;HPM_P1;HPM_P2
2021/08/15 00:01:16;;;;;;;19.27;17.57;;;23.70;99.90;;;;;;4961199;29;20464;-88
2021/08/15 00:03:43;;;;;;;17.90;16.30;;;23.70;99.90;;;;;;4962747;29;20447;-88
2021/08/15 00:06:09;;;;;;;20.70;18.80;;;23.70;99.90;;;;;;4978254;29;20443;-88
2021/08/15 00:08:37;;;;;;;20.57;18.77;;;23.60;99.90;;;;;;4978680;29;20456;-89
2021/08/15 00:11:05;;;;;;;18.63;16.93;;;23.60;99.90;;;;;;4976873;29;20444;-88
2021/08/15 00:13:32;;;;;;;18.83;17.00;;;23.50;99.90;;;;;;4960830;29;20968;-88
2021/08/15 00:15:59;;;;;;;20.10;18.30;;;23.50;99.90;;;;;;4957904;28;20824;-88
2021/08/15 00:18:26;;;;;;;18.53;16.80;;;23.40;99.90;;;;;;4955588;28;20991;-88
2021/08/15 00:20:53;;;;;;;20.00;17.87;;;23.30;99.90;;;;;;4977836;28;20417;-90
2021/08/15 00:23:19;;;;;;;19.07;17.37;;;23.30;99.90;;;;;;4981531;28;20898;-89
2021/08/15 00:25:48;;;;;;;19.13;17.33;;;23.20;99.90;;;;;;4968675;28;20442;-87
2021/08/15 00:28:14;;;;;;;19.07;17.30;;;23.30;99.90;;;;;;4958548;29;20467;-88
2021/08/15 00:30:41;;;;;;;19.70;17.83;;;23.20;99.90;;;;;;4951981;29;20453;-89
2021/08/15 00:33:08;;;;;;;19.60;17.73;;;23.10;99.90;;;;;;4940853;29;20452;-89
2021/08/15 00:35:34;;;;;;;18.90;16.90;;;23.10;99.90;;;;;;4939282;29;20459;-88
2021/08/15 00:38:01;;;;;;;20.77;18.73;;;23.10;99.90;;;;;;4938762;29;20834;-89
2021/08/15 00:40:28;;;;;;;18.67;17.03;;;23.10;99.90;;;;;;4948892;28;20843;-89
2021/08/15 00:42:56;;;;;;;18.43;16.73;;;23.10;99.90;;;;;;4957132;28;20495;-88
2021/08/15 00:45:23;;;;;;;18.70;17.13;;;23.10;99.90;;;;;;4957232;28;20452;-88
2021/08/15 00:47:49;;;;;;;19.17;17.47;;;23.10;99.90;;;;;;4960626;28;20507;-89
2021/08/15 00:50:16;;;;;;;19.73;18.03;;;23.10;99.90;;;;;;4956961;29;20470;-88
2021/08/15 00:52:43;;;;;;;19.93;18.20;;;23.10;99.90;;;;;;4958484;28;20448;-89
2021/08/15 00:55:11;;;;;;;19.87;18.17;;;23.00;99.90;;;;;;4957138;28;20456;-89
2021/08/15 00:57:41;;;;;;;19.10;17.27;;;23.00;99.90;;;;;;4940419;29;20480;-89
2021/08/15 01:00:12;;;;;;;20.47;18.47;;;22.90;99.90;;;;;;4937476;29;20804;-89
2021/08/15 01:02:39;;;;;;;19.33;17.43;;;22.90;99.90;;;;;;4937059;29;20488;-89
2021/08/15 01:05:07;;;;;;;19.37;17.67;;;22.90;99.90;;;;;;4937440;29;20482;-88
2021/08/15 01:07:34;;;;;;;21.37;19.37;;;22.80;99.90;;;;;;4937114;29;20480;-89
2021/08/15 01:10:01;;;;;;;20.63;18.70;;;22.80;99.90;;;;;;4937618;29;20449;-86
2021/08/15 01:12:28;;;;;;;20.17;18.40;;;22.80;99.90;;;;;;4940283;29;20815;-88
2021/08/15 01:14:57;;;;;;;19.30;17.77;;;22.70;99.90;;;;;;4957164;28;20460;-87
2021/08/15 01:17:25;;;;;;;21.73;19.80;;;22.70;99.90;;;;;;4957280;29;20452;-88
2021/08/15 01:19:53;;;;;;;20.63;18.73;;;22.60;99.90;;;;;;4937986;29;20448;-87
2021/08/15 01:22:20;;;;;;;21.00;19.00;;;22.60;99.90;;;;;;4938646;29;20769;-88
2021/08/15 01:24:47;;;;;;;20.37;18.43;;;22.50;99.90;;;;;;4936427;29;20447;-88
2021/08/15 01:27:14;;;;;;;20.40;18.60;;;22.50;99.90;;;;;;4936511;29;20455;-87
2021/08/15 01:29:44;;;;;;;19.90;18.07;;;22.40;99.90;;;;;;4944277;28;20513;-88
2021/08/15 01:32:11;;;;;;;20.50;18.37;;;22.30;99.90;;;;;;4954331;28;20841;-88
2021/08/15 01:34:38;;;;;;;21.53;19.33;;;22.30;99.90;;;;;;4961935;28;20557;-88
2021/08/15 01:37:07;;;;;;;22.10;19.90;;;22.30;99.90;;;;;;4955902;28;20476;-88
2021/08/15 01:39:33;;;;;;;22.40;20.40;;;22.30;99.90;;;;;;4955236;29;20482;-88
2021/08/15 01:42:00;;;;;;;21.17;19.20;;;22.30;99.90;;;;;;4955726;28;20499;-88
2021/08/15 01:44:27;;;;;;;21.40;19.47;;;22.20;99.90;;;;;;4955944;28;20450;-88
2021/08/15 01:46:55;;;;;;;21.57;19.77;;;22.30;99.90;;;;;;4945338;29;20454;-88
2021/08/15 01:49:21;;;;;;;21.90;19.80;;;22.30;99.90;;;;;;4944699;29;20467;-88
2021/08/15 01:51:48;;;;;;;23.40;21.20;;;22.20;99.90;;;;;;4952042;29;20451;-88
2021/08/15 01:54:14;;;;;;;20.60;18.60;;;22.20;99.90;;;;;;4976535;23;20501;-86
2021/08/15 01:56:41;;;;;;;24.77;22.27;;;22.10;99.90;;;;;;4976729;28;20981;-86
2021/08/15 01:59:08;;;;;;;22.20;20.00;;;22.00;99.90;;;;;;4973713;28;20444;-86
2021/08/15 02:01:35;;;;;;;20.43;18.53;;;22.00;99.90;;;;;;4956640;29;20442;-87
2021/08/15 02:04:03;;;;;;;22.30;20.20;;;22.00;99.90;;;;;;4952079;29;20550;-86
2021/08/15 02:06:29;;;;;;;22.30;20.37;;;22.00;99.90;;;;;;4936725;29;20449;-86
2021/08/15 02:08:56;;;;;;;23.23;20.93;;;21.90;99.90;;;;;;4947294;29;20462;-86
2021/08/15 02:11:23;;;;;;;22.43;20.23;;;21.90;99.90;;;;;;4956980;29;20456;-86
2021/08/15 02:13:49;;;;;;;22.27;20.13;;;22.00;99.90;;;;;;4956741;28;20481;-85
2021/08/15 02:16:16;;;;;;;20.57;18.67;;;21.90;99.90;;;;;;4956338;29;20459;-85
2021/08/15 02:18:43;;;;;;;23.00;20.70;;;21.90;99.90;;;;;;4956109;29;20488;-85
2021/08/15 02:21:12;;;;;;;21.47;19.23;;;21.90;99.90;;;;;;4955985;29;20453;-86
2021/08/15 02:23:38;;;;;;;22.27;20.17;;;21.90;99.90;;;;;;4954062;28;20863;-85
2021/08/15 02:26:05;;;;;;;22.63;20.70;;;21.80;99.90;;;;;;4938903;29;20552;-86
2021/08/15 02:28:32;;;;;;;22.40;20.43;;;21.70;99.90;;;;;;4936966;29;20458;-85
2021/08/15 02:30:58;;;;;;;22.20;20.20;;;21.70;99.90;;;;;;4936936;29;20481;-85
2021/08/15 02:33:25;;;;;;;20.13;18.53;;;21.70;99.90;;;;;;4937079;29;20447;-86
2021/08/15 02:35:53;;;;;;;24.20;21.80;;;21.70;99.90;;;;;;4936662;29;20451;-86
2021/08/15 02:38:21;;;;;;;20.50;18.60;;;21.80;99.90;;;;;;4937149;29;20463;-86
2021/08/15 02:40:48;;;;;;;21.63;19.73;;;21.70;99.90;;;;;;4937568;29;20466;-85
2021/08/15 02:43:15;;;;;;;22.73;20.63;;;21.70;99.90;;;;;;4936442;29;20556;-86
2021/08/15 02:45:42;;;;;;;21.83;19.83;;;21.70;99.90;;;;;;4936912;29;20478;-86
2021/08/15 02:48:08;;;;;;;20.90;19.10;;;21.70;99.90;;;;;;4939189;29;20456;-85
2021/08/15 02:50:35;;;;;;;21.00;19.10;;;21.70;99.90;;;;;;4948365;29;20450;-85
2021/08/15 02:53:02;;;;;;;21.37;19.37;;;21.60;99.90;;;;;;4939250;29;20442;-85
2021/08/15 02:55:30;;;;;;;21.77;19.83;;;21.60;99.90;;;;;;4938127;29;20900;-85
2021/08/15 02:57:57;;;;;;;21.77;19.87;;;21.60;99.90;;;;;;4940047;29;20445;-86
2021/08/15 03:00:23;;;;;;;21.50;19.50;;;21.50;99.90;;;;;;4955587;29;20457;-85
2021/08/15 03:02:50;;;;;;;22.90;20.90;;;21.50;99.90;;;;;;4957258;29;20483;-85
2021/08/15 03:05:17;;;;;;;21.20;19.40;;;21.50;99.90;;;;;;4956977;28;20473;-85
2021/08/15 03:07:43;;;;;;;21.23;19.30;;;21.50;99.90;;;;;;4956932;29;20455;-85
2021/08/15 03:10:11;;;;;;;21.77;19.83;;;21.50;99.90;;;;;;4957220;29;20457;-86
2021/08/15 03:12:39;;;;;;;23.40;21.30;;;21.40;99.90;;;;;;4956392;28;21129;-86
2021/08/15 03:15:07;;;;;;;22.20;20.00;;;21.40;99.90;;;;;;4948022;28;20478;-86
2021/08/15 03:17:34;;;;;;;23.73;21.53;;;21.30;99.90;;;;;;4940883;29;20457;-86
2021/08/15 03:20:01;;;;;;;23.20;21.00;;;21.30;99.90;;;;;;4958662;29;20450;-86
2021/08/15 03:22:27;;;;;;;21.70;19.70;;;21.30;99.90;;;;;;4956448;29;20460;-86
2021/08/15 03:24:54;;;;;;;22.97;20.67;;;21.30;99.90;;;;;;4937191;29;20500;-86
2021/08/15 03:27:21;;;;;;;20.93;18.73;;;21.30;99.90;;;;;;4938494;29;20454;-86
2021/08/15 03:29:49;;;;;;;23.20;20.60;;;21.20;99.90;;;;;;4953195;29;20450;-86
2021/08/15 03:32:15;;;;;;;21.17;19.17;;;21.20;99.90;;;;;;4951477;29;21043;-86
2021/08/15 03:34:42;;;;;;;21.57;19.67;;;21.10;99.90;;;;;;4938015;29;20469;-86
2021/08/15 03:37:09;;;;;;;22.37;20.33;;;21.20;99.90;;;;;;4937645;29;20465;-86
2021/08/15 03:39:35;;;;;;;20.50;18.80;;;21.10;99.90;;;;;;4938766;29;20453;-86
2021/08/15 03:42:02;;;;;;;23.30;21.30;;;21.10;99.90;;;;;;4951951;29;20450;-86
2021/08/15 03:44:31;;;;;;;22.70;20.70;;;21.10;99.90;;;;;;4958194;29;20497;-86
2021/08/15 03:46:59;;;;;;;21.43;19.67;;;21.00;99.90;;;;;;4944357;29;20564;-86
2021/08/15 03:49:27;;;;;;;22.70;20.43;;;21.00;99.90;;;;;;4971563;29;20445;-86
2021/08/15 03:51:54;;;;;;;22.40;20.40;;;21.00;99.90;;;;;;4959081;28;20887;-86
2021/08/15 03:54:21;;;;;;;23.20;21.17;;;21.00;99.90;;;;;;4961741;28;21204;-84
2021/08/15 03:56:48;;;;;;;22.73;20.60;;;21.00;99.90;;;;;;4960529;29;20453;-84
2021/08/15 03:59:15;;;;;;;22.40;20.50;;;21.00;99.90;;;;;;4972579;29;20445;-86
2021/08/15 04:01:42;;;;;;;21.07;19.37;;;20.90;99.90;;;;;;4969516;29;20460;-85
2021/08/15 04:04:11;;;;;;;20.67;18.90;;;20.90;99.90;;;;;;4959709;28;20500;-85
2021/08/15 04:06:37;;;;;;;22.03;19.80;;;20.90;99.90;;;;;;4959668;29;20463;-85
2021/08/15 04:09:04;;;;;;;22.40;20.37;;;20.90;99.90;;;;;;4958777;29;20539;-85
2021/08/15 04:11:31;;;;;;;21.73;19.60;;;20.90;99.90;;;;;;4958724;29;20448;-85
2021/08/15 04:13:58;;;;;;;21.13;19.33;;;20.90;99.90;;;;;;4962693;28;20473;-85
2021/08/15 04:16:24;;;;;;;22.47;20.37;;;20.90;99.90;;;;;;4959048;29;20453;-85
2021/08/15 04:18:51;;;;;;;20.50;18.77;;;20.80;99.90;;;;;;4962127;29;20457;-85
2021/08/15 04:21:19;;;;;;;25.50;21.47;;;20.80;99.90;;;;;;4948109;29;20452;-84
2021/08/15 04:23:46;;;;;;;21.57;19.47;;;20.70;99.90;;;;;;4938699;29;20517;-86
2021/08/15 04:26:12;;;;;;;23.10;21.00;;;20.70;99.90;;;;;;4939016;29;20461;-85
2021/08/15 04:28:39;;;;;;;21.73;19.83;;;20.80;99.90;;;;;;4938297;29;20453;-85
2021/08/15 04:31:06;;;;;;;22.60;20.50;;;20.80;99.90;;;;;;4940338;29;20982;-85
2021/08/15 04:33:33;;;;;;;22.73;20.70;;;20.70;99.90;;;;;;4939021;29;20446;-83
2021/08/15 04:35:59;;;;;;;24.40;22.10;;;20.70;99.90;;;;;;4943225;29;20454;-84
2021/08/15 04:38:27;;;;;;;23.07;20.97;;;20.70;99.90;;;;;;4949542;29;20449;-85
2021/08/15 04:40:54;;;;;;;22.43;20.30;;;20.70;99.90;;;;;;4941708;29;20457;-84
2021/08/15 04:43:21;;;;;;;23.10;20.30;;;20.80;99.90;;;;;;4941801;29;20478;-84
2021/08/15 04:45:48;;;;;;;22.53;20.53;;;20.80;99.90;;;;;;4941298;29;20469;-84
2021/08/15 04:48:15;;;;;;;23.73;21.63;;;20.80;99.90;;;;;;4940757;29;20463;-84
2021/08/15 04:50:42;;;;;;;21.87;19.90;;;20.80;99.90;;;;;;4940833;29;20468;-84
2021/08/15 04:53:08;;;;;;;23.17;21.17;;;20.80;99.90;;;;;;4941973;29;20441;-85
2021/08/15 04:55:37;;;;;;;22.30;20.40;;;20.80;99.90;;;;;;4941089;29;20478;-84
2021/08/15 04:58:05;;;;;;;21.50;19.60;;;20.90;99.90;;;;;;4947752;29;20457;-84
2021/08/15 05:00:31;;;;;;;21.50;19.50;;;21.10;99.90;;;;;;4946464;29;20453;-84
2021/08/15 05:02:58;;;;;;;21.40;19.37;;;21.20;99.90;;;;;;4946037;29;20449;-85
2021/08/15 05:05:25;;;;;;;20.20;18.50;;;21.40;99.90;;;;;;4950249;29;20473;-84
2021/08/15 05:07:52;;;;;;;21.80;19.47;;;21.70;99.90;;;;;;4963443;29;20455;-85
2021/08/15 05:10:19;;;;;;;19.97;18.10;;;21.80;99.90;;;;;;4967861;29;20889;-83
2021/08/15 05:12:47;;;;;;;20.00;18.37;;;22.10;99.90;;;;;;4980342;28;20436;-85
2021/08/15 05:15:13;;;;;;;20.43;18.57;;;22.40;99.90;;;;;;4970192;28;20467;-84
2021/08/15 05:17:40;;;;;;;20.97;19.07;;;22.70;99.90;;;;;;4962095;29;20455;-84
2021/08/15 05:20:08;;;;;;;20.83;18.67;;;22.90;99.90;;;;;;4960336;29;20831;-85
2021/08/15 05:22:35;;;;;;;20.70;18.80;;;23.20;99.90;;;;;;4962489;28;20950;-84
2021/08/15 05:25:01;;;;;;;20.47;18.70;;;23.30;99.90;;;;;;4962975;28;20503;-85
2021/08/15 05:27:28;;;;;;;19.60;18.10;;;23.30;99.90;;;;;;4952052;29;20461;-85
2021/08/15 05:29:56;;;;;;;19.47;17.80;;;23.50;99.90;;;;;;4945020;29;20464;-85
2021/08/15 05:32:23;;;;;;;17.83;16.10;;;23.90;99.90;;;;;;4945295;29;20454;-85
2021/08/15 05:34:50;;;;;;;20.47;18.70;;;24.20;99.90;;;;;;4963235;28;21016;-85
2021/08/15 05:37:16;;;;;;;19.53;17.93;;;24.50;99.90;;;;;;4959081;29;20453;-85
2021/08/15 05:39:43;;;;;;;19.10;17.10;;;24.80;99.90;;;;;;4961182;29;20448;-85
2021/08/15 05:42:10;;;;;;;19.00;17.40;;;24.90;99.90;;;;;;4962389;29;20982;-85
2021/08/15 05:44:36;;;;;;;18.37;16.90;;;24.70;99.90;;;;;;4962804;28;20484;-85
2021/08/15 05:47:05;;;;;;;20.50;18.70;;;24.70;99.90;;;;;;4964825;29;20445;-85
2021/08/15 05:49:32;;;;;;;17.43;16.03;;;24.50;99.90;;;;;;4974764;29;20448;-86
2021/08/15 05:51:58;;;;;;;19.13;17.53;;;24.80;99.90;;;;;;4973552;29;20458;-86
2021/08/15 05:54:25;;;;;;;18.97;17.27;;;25.20;99.90;;;;;;4967419;28;20508;-85
2021/08/15 05:56:52;;;;;;;18.07;16.47;;;25.50;99.90;;;;;;4967336;29;20456;-85
2021/08/15 05:59:19;;;;;;;17.83;16.43;;;25.60;99.90;;;;;;4963842;29;20461;-85
2021/08/15 06:01:45;;;;;;;19.50;17.80;;;25.50;99.90;;;;;;4965947;29;20460;-85
2021/08/15 06:04:13;;;;;;;19.73;18.23;;;25.70;99.90;;;;;;4970665;28;20500;-85
2021/08/15 06:06:41;;;;;;;19.80;18.00;;;25.90;99.90;;;;;;4974983;29;20451;-85
2021/08/15 06:09:08;;;;;;;19.73;17.87;;;26.30;99.90;;;;;;4976360;29;20453;-85
2021/08/15 06:11:34;;;;;;;19.93;18.23;;;26.70;99.90;;;;;;4971609;29;20473;-89
2021/08/15 06:14:02;;;;;;;18.77;17.03;;;27.10;99.90;;;;;;4972690;28;20471;-89
2021/08/15 06:16:29;;;;;;;18.40;16.80;;;27.40;99.90;;;;;;4955629;29;20543;-89
2021/08/15 06:18:55;;;;;;;18.03;16.63;;;27.80;99.30;;;;;;4956974;29;20457;-89
2021/08/15 06:21:23;;;;;;;17.60;16.10;;;28.00;98.80;;;;;;4955565;29;20460;-89
2021/08/15 06:23:50;;;;;;;16.60;15.10;;;28.50;98.10;;;;;;4955908;28;20512;-90
2021/08/15 06:26:17;;;;;;;18.10;16.63;;;28.80;96.30;;;;;;4954556;29;20515;-89
2021/08/15 06:28:44;;;;;;;18.47;16.93;;;29.00;95.60;;;;;;4954627;29;20476;-89
2021/08/15 06:31:10;;;;;;;17.43;15.93;;;29.30;95.30;;;;;;4954317;29;20957;-89
2021/08/15 06:33:37;;;;;;;18.63;17.13;;;29.50;94.70;;;;;;4953091;28;20958;-89
2021/08/15 06:36:04;;;;;;;17.63;16.13;;;30.00;93.60;;;;;;4954826;29;20506;-89
2021/08/15 06:38:32;;;;;;;17.87;16.37;;;30.60;92.30;;;;;;4955072;29;20456;-89
2021/08/15 06:40:59;;;;;;;17.90;16.50;;;30.70;91.20;;;;;;4954713;29;20448;-88
2021/08/15 06:43:26;;;;;;;17.33;15.90;;;30.70;90.30;;;;;;4954428;29;20965;-85
2021/08/15 06:45:54;;;;;;;17.10;15.67;;;30.90;90.10;;;;;;4955676;29;20449;-86
2021/08/15 06:48:22;;;;;;;17.30;16.10;;;31.30;88.60;;;;;;4955668;29;20540;-86
2021/08/15 06:50:53;;;;;;;17.90;16.50;;;31.30;87.10;;;;;;4959502;29;20555;-85
2021/08/15 06:53:20;;;;;;;17.87;16.47;;;31.50;85.70;;;;;;4956615;29;20524;-87
2021/08/15 06:55:49;;;;;;;16.70;15.30;;;31.40;85.80;;;;;;4961628;28;20480;-86
2021/08/15 06:58:16;;;;;;;16.00;14.67;;;31.30;85.70;;;;;;4956832;29;20960;-85
2021/08/15 07:00:42;;;;;;;19.37;17.60;;;31.60;85.60;;;;;;4955690;29;20453;-86
2021/08/15 07:03:09;;;;;;;17.60;15.93;;;31.90;85.30;;;;;;4954643;29;20806;-87
2021/08/15 07:05:36;;;;;;;17.73;16.23;;;32.00;82.30;;;;;;4953004;28;20496;-87
2021/08/15 07:08:03;;;;;;;17.37;15.97;;;32.30;81.40;;;;;;4966578;28;20435;-86
2021/08/15 07:10:29;;;;;;;16.80;15.40;;;32.60;79.90;;;;;;4979399;28;20429;-86
2021/08/15 07:12:58;;;;;;;16.90;15.60;;;32.40;80.50;;;;;;4958926;29;20452;-87
2021/08/15 07:15:28;;;;;;;17.10;15.77;;;32.50;79.70;;;;;;4956564;28;20859;-87
2021/08/15 07:17:56;;;;;;;16.27;14.97;;;33.20;78.10;;;;;;4954817;29;20479;-87
2021/08/15 07:20:23;;;;;;;17.40;15.87;;;33.90;76.10;;;;;;4963804;29;20910;-87
2021/08/15 07:22:49;;;;;;;16.63;15.27;;;33.70;74.00;;;;;;4959713;29;20460;-87
2021/08/15 07:25:17;;;;;;;14.30;13.20;;;34.10;73.00;;;;;;4955542;28;20863;-87
2021/08/15 07:27:44;;;;;;;17.37;15.90;;;34.70;71.70;;;;;;4957694;29;20452;-87
2021/08/15 07:30:13;;;;;;;16.83;15.00;;;35.30;68.70;;;;;;4957735;29;20457;-87
2021/08/15 07:32:50;;;;;;;15.33;14.20;;;35.30;65.90;;;;;;4958640;29;20456;-86
2021/08/15 07:35:17;;;;;;;14.70;13.60;;;35.50;64.00;;;;;;4961964;28;20460;-87
2021/08/15 07:37:43;;;;;;;14.90;13.73;;;36.10;62.50;;;;;;4959587;29;20511;-87
2021/08/15 07:40:11;;;;;;;15.40;14.20;;;36.10;61.90;;;;;;4956945;29;20448;-87
2021/08/15 07:42:37;;;;;;;13.87;12.97;;;35.80;61.60;;;;;;4957848;28;20440;-87
2021/08/15 07:45:05;;;;;;;14.10;13.10;;;36.50;61.10;;;;;;4957440;28;21028;-87
2021/08/15 07:47:34;;;;;;;14.87;13.73;;;36.80;60.60;;;;;;4957624;28;20453;-87
2021/08/15 07:50:00;;;;;;;14.87;13.77;;;36.90;59.80;;;;;;4957575;29;20552;-87
2021/08/15 07:52:27;;;;;;;14.80;13.57;;;37.00;60.00;;;;;;4958552;29;20475;-86
2021/08/15 07:54:54;;;;;;;15.20;14.10;;;37.20;58.70;;;;;;4955882;28;20475;-87
2021/08/15 07:57:20;;;;;;;16.90;15.40;;;37.30;58.00;;;;;;4986635;23;20894;-89
2021/08/15 07:59:47;;;;;;;15.00;13.83;;;37.70;57.20;;;;;;4979124;28;20499;-89
2021/08/15 08:02:14;;;;;;;13.93;12.93;;;38.30;56.10;;;;;;4978318;28;20865;-90
2021/08/15 08:04:43;;;;;;;16.07;14.53;;;38.50;56.10;;;;;;4978562;28;21000;-90
2021/08/15 08:07:10;;;;;;;16.50;15.30;;;38.40;56.00;;;;;;4979509;28;20475;-90
2021/08/15 08:09:37;;;;;;;14.93;13.73;;;38.10;55.50;;;;;;4978824;28;20456;-90
2021/08/15 08:12:04;;;;;;;15.63;14.43;;;38.30;55.70;;;;;;4979337;28;20960;-90
2021/08/15 08:14:31;;;;;;;15.97;14.80;;;38.30;56.10;;;;;;4978635;28;20444;-90
2021/08/15 08:16:58;;;;;;;15.20;14.10;;;38.50;55.40;;;;;;4964335;28;20467;-89
2021/08/15 08:19:25;;;;;;;15.80;14.60;;;38.70;54.60;;;;;;4978383;28;20439;-90
2021/08/15 08:22:01;;;;;;;15.97;14.67;;;39.30;53.50;;;;;;4982181;28;20505;-88
2021/08/15 08:24:28;;;;;;;15.10;13.77;;;38.80;53.80;;;;;;4979481;28;20480;-88
2021/08/15 08:26:55;;;;;;;15.33;14.03;;;38.70;54.20;;;;;;4977126;29;20457;-88
2021/08/15 08:29:22;;;;;;;15.97;14.80;;;39.50;53.30;;;;;;4976029;29;20509;-89
2021/08/15 08:31:48;;;;;;;14.13;13.03;;;40.00;52.00;;;;;;4976338;29;20525;-89
2021/08/15 08:34:15;;;;;;;16.30;15.10;;;40.50;51.00;;;;;;4971691;29;20425;-89
2021/08/15 08:36:42;;;;;;;15.43;14.33;;;41.00;50.10;;;;;;4964265;28;20465;-88
2021/08/15 08:39:10;;;;;;;16.27;14.90;;;41.10;49.40;;;;;;4978523;28;20445;-88
2021/08/15 08:41:38;;;;;;;15.97;14.30;;;41.40;48.60;;;;;;4967094;29;20444;-89
2021/08/15 08:44:07;;;;;;;15.13;13.70;;;41.70;48.00;;;;;;4979340;28;20437;-88
2021/08/15 08:46:34;;;;;;;15.57;14.37;;;41.50;47.90;;;;;;4968006;29;20460;-90
2021/08/15 08:49:01;;;;;;;15.67;14.37;;;42.40;46.90;;;;;;4963305;29;20425;-89
2021/08/15 08:51:28;;;;;;;16.20;15.00;;;41.70;47.20;;;;;;4975787;29;20437;-90
2021/08/15 08:53:55;;;;;;;16.77;15.27;;;40.70;48.40;;;;;;4968843;28;20460;-90
2021/08/15 08:56:24;;;;;;;15.70;14.60;;;40.10;49.70;;;;;;4972507;29;20521;-90
2021/08/15 08:58:53;;;;;;;16.10;14.80;;;40.50;49.70;;;;;;4959836;28;20449;-90
2021/08/15 09:01:20;;;;;;;17.33;15.93;;;40.00;49.60;;;;;;4959787;28;20447;-89
2021/08/15 09:03:47;;;;;;;15.13;13.93;;;39.70;49.70;;;;;;4959568;28;20451;-89
2021/08/15 09:06:25;;;;;;;15.67;14.57;;;40.00;50.10;;;;;;4966280;29;20461;-88
2021/08/15 09:08:53;;;;;;;15.30;14.17;;;39.70;49.90;;;;;;4970627;29;20764;-89
2021/08/15 09:11:21;;;;;;;14.20;13.20;;;39.20;50.80;;;;;;4974166;28;20456;-89
2021/08/15 09:14:03;;;;;;;13.23;12.33;;;39.90;50.30;;;;;;4963473;29;20437;-90
2021/08/15 09:16:53;;;;;;;14.03;13.00;;;40.90;47.90;;;;;;4957874;28;20483;-89
2021/08/15 09:19:37;;;;;;;13.50;12.50;;;41.20;47.20;;;;;;4959887;28;20445;-90
2021/08/15 09:22:21;;;;;;;14.40;13.40;;;40.50;46.90;;;;;;4958787;29;20466;-90
2021/08/15 09:24:54;;;;;;;13.20;12.10;;;39.40;48.80;;;;;;4961247;29;20496;-90
2021/08/15 09:27:25;;;;;;;13.67;12.57;;;39.30;49.80;;;;;;4979886;28;20482;-90
2021/08/15 09:30:15;;;;;;;13.13;12.30;;;39.40;48.80;;;;;;4962813;28;20445;-91
2021/08/15 09:32:46;;;;;;;12.27;11.47;;;39.90;47.60;;;;;;4962137;28;20445;-90
2021/08/15 09:35:18;;;;;;;12.20;11.10;;;39.30;48.40;;;;;;4959158;28;20449;-89
2021/08/15 09:37:54;;;;;;;13.77;12.63;;;40.10;48.40;;;;;;4958594;29;20473;-89
2021/08/15 09:40:23;;;;;;;13.07;12.07;;;41.70;46.10;;;;;;4967742;28;20447;-90
2021/08/15 09:42:50;;;;;;;12.80;11.90;;;42.80;44.20;;;;;;4980096;28;20449;-89
2021/08/15 09:45:35;;;;;;;14.13;13.07;;;42.20;43.70;;;;;;4978539;28;20483;-90
2021/08/15 09:48:20;;;;;;;11.90;11.10;;;41.80;44.50;;;;;;4977943;28;20452;-90
2021/08/15 09:51:07;;;;;;;12.90;12.00;;;40.80;45.50;;;;;;4992865;28;20452;-90
2021/08/15 09:53:35;;;;;;;13.30;12.30;;;40.60;46.10;;;;;;4986068;28;20471;-90
2021/08/15 09:56:02;;;;;;;14.20;13.10;;;42.00;44.80;;;;;;4962377;29;20464;-90
2021/08/15 09:58:28;;;;;;;12.70;11.87;;;41.40;44.50;;;;;;4959713;29;21081;-90
2021/08/15 10:01:00;;;;;;;12.03;10.93;;;41.40;45.40;;;;;;4959913;29;20445;-90
2021/08/15 10:03:28;;;;;;;13.43;12.27;;;41.40;45.80;;;;;;4959681;29;20456;-90
2021/08/15 10:05:56;;;;;;;12.53;11.73;;;42.50;44.10;;;;;;4958766;29;20866;-89
2021/08/15 10:08:24;;;;;;;12.90;12.10;;;42.60;43.10;;;;;;4972776;28;20456;-89
2021/08/15 10:10:52;;;;;;;12.20;11.20;;;43.40;42.50;;;;;;4984034;28;20463;-90
2021/08/15 10:13:18;;;;;;;13.00;12.10;;;43.50;41.50;;;;;;4982199;28;20455;-89
2021/08/15 10:15:57;;;;;;;12.30;11.30;;;44.00;41.00;;;;;;4981774;28;20448;-91
2021/08/15 10:18:28;;;;;;;13.00;11.93;;;45.00;40.50;;;;;;4981344;28;20447;-89
2021/08/15 10:21:07;;;;;;;12.73;11.63;;;45.40;39.20;;;;;;4963485;28;20449;-90
2021/08/15 10:23:38;;;;;;;12.07;11.13;;;45.40;38.80;;;;;;4957060;28;20983;-89
2021/08/15 10:26:43;;;;;;;13.10;12.10;;;44.40;39.80;;;;;;4964132;29;20483;-90
2021/08/15 10:29:33;;;;;;;13.33;11.93;;;43.00;41.20;;;;;;4961374;28;20453;-90
2021/08/15 10:32:25;;;;;;;13.23;12.13;;;40.80;44.90;;;;;;4957147;28;20444;-90
2021/08/15 10:35:18;;;;;;;13.47;12.57;;;40.10;46.10;;;;;;4956211;28;20961;-91
2021/08/15 10:37:47;;;;;;;12.73;11.73;;;39.20;47.70;;;;;;4956377;28;20469;-85
2021/08/15 10:40:57;;;;;;;13.13;12.10;;;38.30;48.60;;;;;;4955674;29;20461;-85
2021/08/15 10:44:09;;;;;;;13.03;12.00;;;36.90;51.60;;;;;;4960602;29;20452;-86
2021/08/15 10:46:37;;;;;;;13.17;12.03;;;35.90;53.50;;;;;;4956013;28;20568;-88
2021/08/15 10:49:05;;;;;;;13.33;12.20;;;35.30;55.10;;;;;;4966283;29;20507;-86
2021/08/15 10:51:48;;;;;;;13.67;12.53;;;34.40;56.50;;;;;;4963787;29;20479;-88
2021/08/15 10:55:07;;;;;;;13.60;12.47;;;34.60;57.40;;;;;;4970935;28;20413;-89
2021/08/15 10:57:51;;;;;;;13.30;12.30;;;36.10;55.50;;;;;;4976707;28;20477;-89
2021/08/15 11:00:42;;;;;;;14.13;12.80;;;37.70;52.00;;;;;;4976638;28;20483;-88
2021/08/15 11:03:38;;;;;;;15.33;14.03;;;37.60;51.70;;;;;;4981029;28;20460;-88
2021/08/15 11:06:07;;;;;;;14.40;13.17;;;36.50;53.40;;;;;;4981526;28;20491;-87
2021/08/15 11:09:00;;;;;;;13.23;12.13;;;35.70;54.60;;;;;;4980845;28;20463;-88
2021/08/15 11:11:30;;;;;;;15.33;13.93;;;34.90;56.40;;;;;;4955524;28;20954;-87
2021/08/15 11:14:26;;;;;;;13.93;12.73;;;34.40;58.00;;;;;;4962433;28;20451;-87
2021/08/15 11:16:55;;;;;;;14.50;13.20;;;33.80;58.80;;;;;;4944902;29;20556;-89
2021/08/15 11:19:29;;;;;;;14.30;13.03;;;33.50;59.90;;;;;;4961612;28;20444;-86
2021/08/15 11:22:29;;;;;;;14.63;13.33;;;33.40;60.00;;;;;;4961496;29;20818;-86
2021/08/15 11:25:03;;;;;;;13.40;12.40;;;33.50;60.50;;;;;;4947109;29;20448;-85
2021/08/15 11:27:36;;;;;;;14.53;12.83;;;35.40;57.60;;;;;;4973686;29;20475;-86
2021/08/15 11:30:12;;;;;;;13.13;11.90;;;37.60;54.00;;;;;;4983772;28;20444;-87
2021/08/15 11:32:39;;;;;;;13.47;11.63;;;37.80;52.70;;;;;;4966336;29;20958;-90
2021/08/15 11:35:08;;;;;;;12.20;11.20;;;36.80;53.20;;;;;;4980520;28;20453;-86
2021/08/15 11:37:37;;;;;;;13.13;12.13;;;35.90;54.70;;;;;;4974296;28;20467;-85
2021/08/15 11:40:17;;;;;;;14.23;13.00;;;35.10;56.10;;;;;;4978755;28;20487;-85
2021/08/15 11:42:54;;;;;;;13.90;12.80;;;34.30;57.70;;;;;;4976709;28;20455;-85
2021/08/15 11:45:28;;;;;;;16.60;14.47;;;33.70;59.00;;;;;;4962809;29;20492;-85
2021/08/15 11:47:55;;;;;;;13.53;12.17;;;33.30;60.40;;;;;;4970332;29;20448;-85
2021/08/15 11:50:22;;;;;;;13.20;11.90;;;32.90;61.50;;;;;;4961121;28;20476;-85
2021/08/15 11:52:50;;;;;;;14.33;13.03;;;32.70;62.70;;;;;;4971723;28;20449;-86
2021/08/15 11:55:24;;;;;;;14.37;12.40;;;32.40;64.60;;;;;;4962419;28;20449;-85
2021/08/15 11:57:53;;;;;;;16.60;12.90;;;32.10;66.60;;;;;;4963519;28;20491;-85
2021/08/15 12:00:29;;;;;;;13.80;12.67;;;31.80;68.40;;;;;;4961914;28;20456;-85
2021/08/15 12:03:04;;;;;;;15.57;14.27;;;31.60;69.90;;;;;;4967235;28;20451;-85
2021/08/15 12:05:31;;;;;;;15.27;13.70;;;31.40;71.90;;;;;;4981530;28;21007;-85
2021/08/15 12:08:03;;;;;;;15.37;14.10;;;31.30;71.70;;;;;;4980520;28;20467;-89
2021/08/15 12:10:36;;;;;;;14.83;13.37;;;31.20;72.40;;;;;;4979759;28;20888;-85
2021/08/15 12:13:21;;;;;;;13.70;12.60;;;31.10;73.50;;;;;;4965954;28;20459;-87
2021/08/15 12:15:50;;;;;;;13.90;12.73;;;31.00;75.30;;;;;;4958512;29;20465;-89
2021/08/15 12:18:38;;;;;;;14.93;13.43;;;31.00;79.10;;;;;;4957213;28;20455;-86
2021/08/15 12:21:27;;;;;;;16.57;15.17;;;31.00;78.10;;;;;;4973566;28;20479;-89
2021/08/15 12:24:09;;;;;;;15.30;13.93;;;30.90;79.40;;;;;;4977394;28;20459;-87
2021/08/15 12:26:39;;;;;;;15.80;14.40;;;30.80;79.60;;;;;;4976440;28;20491;-89
2021/08/15 12:29:07;;;;;;;16.23;14.93;;;30.90;78.90;;;;;;4977062;28;20447;-88
2021/08/15 12:31:36;;;;;;;14.70;13.47;;;31.40;77.30;;;;;;4976796;28;20448;-88
2021/08/15 12:34:09;;;;;;;16.37;14.80;;;33.00;73.10;;;;;;4976758;28;20551;-87
2021/08/15 12:36:47;;;;;;;16.30;14.73;;;33.00;71.10;;;;;;4976136;28;20459;-87
2021/08/15 12:39:15;;;;;;;16.37;13.80;;;32.70;71.90;;;;;;4972961;28;20452;-87
2021/08/15 12:41:52;;;;;;;14.47;13.37;;;34.70;67.30;;;;;;4957016;28;20453;-86